sensor_id;sensor_type;location;lat;lon;timestamp;temperature;humidity
45463;SHT31;31209;49.456;11.134;2022-07-29T00:00:16;21.82;75.04
45463;SHT31;31209;49.456;11.134;2022-07-29T00:01:17;21.86;75.05
45463;SHT31;31209;49.456;11.134;2022-07-29T00:02:18;21.89;75.04
45463;SHT31;31209;49.456;11.134;2022-07-29T00:03:18;21.9;74.99
45463;SHT31;31209;49.456;11.134;2022-07-29T00:04:19;21.87;75.05
45463;SHT31;31209;49.456;11.134;2022-07-29T00:05:20;21.89;75.06
45463;SHT31;31209;49.456;11.134;2022-07-29T00:06:21;21.89;75.08
45463;SHT31;31209;49.456;11.134;2022-07-29T00:07:23;21.93;75.03
45463;SHT31;31209;49.456;11.134;2022-07-29T00:08:24;21.94;75.02
45463;SHT31;31209;49.456;11.134;2022-07-29T00:09:25;21.97;74.93
45463;SHT31;31209;49.456;11.134;2022-07-29T00:10:25;21.97;75.0
45463;SHT31;31209;49.456;11.134;2022-07-29T00:11:30;21.96;74.97
45463;SHT31;31209;49.456;11.134;2022-07-29T00:12:31;21.97;74.97
45463;SHT31;31209;49.456;11.134;2022-07-29T00:13:32;21.94;74.94
45463;SHT31;31209;49.456;11.134;2022-07-29T00:14:32;21.92;75.01
45463;SHT31;31209;49.456;11.134;2022-07-29T00:15:33;21.94;75.02
45463;SHT31;31209;49.456;11.134;2022-07-29T00:16:34;21.94;74.89
45463;SHT31;31209;49.456;11.134;2022-07-29T00:17:35;21.96;74.97
45463;SHT31;31209;49.456;11.134;2022-07-29T00:18:36;21.99;74.98
45463;SHT31;31209;49.456;11.134;2022-07-29T00:19:37;22.02;74.95
45463;SHT31;31209;49.456;11.134;2022-07-29T00:20:37;22.06;74.9
45463;SHT31;31209;49.456;11.134;2022-07-29T00:21:38;22.06;74.89
45463;SHT31;31209;49.456;11.134;2022-07-29T00:22:39;22.04;74.79
45463;SHT31;31209;49.456;11.134;2022-07-29T00:23:40;22.04;74.8
45463;SHT31;31209;49.456;11.134;2022-07-29T00:24:41;22.04;74.84
45463;SHT31;31209;49.456;11.134;2022-07-29T00:25:42;22.0;74.75
45463;SHT31;31209;49.456;11.134;2022-07-29T00:26:42;22.02;74.76
45463;SHT31;31209;49.456;11.134;2022-07-29T00:27:43;22.0;74.84
45463;SHT31;31209;49.456;11.134;2022-07-29T00:28:44;22.0;74.84
45463;SHT31;31209;49.456;11.134;2022-07-29T00:29:45;22.07;74.81
45463;SHT31;31209;49.456;11.134;2022-07-29T00:30:46;22.07;74.74
45463;SHT31;31209;49.456;11.134;2022-07-29T00:31:46;22.06;74.76
45463;SHT31;31209;49.456;11.134;2022-07-29T00:32:47;22.04;74.73
45463;SHT31;31209;49.456;11.134;2022-07-29T00:33:48;22.06;74.72
45463;SHT31;31209;49.456;11.134;2022-07-29T00:34:49;22.04;74.68
45463;SHT31;31209;49.456;11.134;2022-07-29T00:35:50;22.07;74.75
45463;SHT31;31209;49.456;11.134;2022-07-29T00:36:50;22.06;74.7
45463;SHT31;31209;49.456;11.134;2022-07-29T00:37:51;22.07;74.64
45463;SHT31;31209;49.456;11.134;2022-07-29T00:38:53;22.06;74.67
45463;SHT31;31209;49.456;11.134;2022-07-29T00:39:54;22.03;74.67
45463;SHT31;31209;49.456;11.134;2022-07-29T00:40:55;22.02;74.62
45463;SHT31;31209;49.456;11.134;2022-07-29T00:41:55;21.99;74.65
45463;SHT31;31209;49.456;11.134;2022-07-29T00:42:56;22.0;74.67
45463;SHT31;31209;49.456;11.134;2022-07-29T00:43:57;21.99;74.64
45463;SHT31;31209;49.456;11.134;2022-07-29T00:44:58;21.96;74.68
45463;SHT31;31209;49.456;11.134;2022-07-29T00:45:59;21.9;74.76
45463;SHT31;31209;49.456;11.134;2022-07-29T00:46:59;21.89;74.81
45463;SHT31;31209;49.456;11.134;2022-07-29T00:48:00;21.86;74.86
45463;SHT31;31209;49.456;11.134;2022-07-29T00:49:01;21.82;74.9
45463;SHT31;31209;49.456;11.134;2022-07-29T00:50:04;21.84;74.91
45463;SHT31;31209;49.456;11.134;2022-07-29T00:51:06;21.75;74.87
45463;SHT31;31209;49.456;11.134;2022-07-29T00:52:09;21.79;74.96
45463;SHT31;31209;49.456;11.134;2022-07-29T00:53:11;21.72;75.0
45463;SHT31;31209;49.456;11.134;2022-07-29T00:54:13;21.75;75.05
45463;SHT31;31209;49.456;11.134;2022-07-29T00:55:15;21.76;75.06
45463;SHT31;31209;49.456;11.134;2022-07-29T00:56:16;21.79;75.06
45463;SHT31;31209;49.456;11.134;2022-07-29T00:57:16;21.8;75.0
45463;SHT31;31209;49.456;11.134;2022-07-29T00:58:17;21.82;74.92
45463;SHT31;31209;49.456;11.134;2022-07-29T00:59:18;21.83;74.86
45463;SHT31;31209;49.456;11.134;2022-07-29T01:00:21;21.9;74.84
45463;SHT31;31209;49.456;11.134;2022-07-29T01:01:22;21.89;74.85
45463;SHT31;31209;49.456;11.134;2022-07-29T01:02:23;21.9;74.76
45463;SHT31;31209;49.456;11.134;2022-07-29T01:03:24;21.92;74.75
45463;SHT31;31209;49.456;11.134;2022-07-29T01:04:25;21.86;74.77
45463;SHT31;31209;49.456;11.134;2022-07-29T01:05:27;21.87;74.73
45463;SHT31;31209;49.456;11.134;2022-07-29T01:06:28;21.89;74.7
45463;SHT31;31209;49.456;11.134;2022-07-29T01:07:30;21.86;74.67
45463;SHT31;31209;49.456;11.134;2022-07-29T01:08:32;21.9;74.7
45463;SHT31;31209;49.456;11.134;2022-07-29T01:09:34;21.89;74.69
45463;SHT31;31209;49.456;11.134;2022-07-29T01:10:37;21.87;74.76
45463;SHT31;31209;49.456;11.134;2022-07-29T01:11:39;21.86;74.73
45463;SHT31;31209;49.456;11.134;2022-07-29T01:12:43;21.86;74.73
45463;SHT31;31209;49.456;11.134;2022-07-29T01:13:45;21.84;74.82
45463;SHT31;31209;49.456;11.134;2022-07-29T01:14:48;21.78;74.8
45463;SHT31;31209;49.456;11.134;2022-07-29T01:15:55;21.73;74.88
45463;SHT31;31209;49.456;11.134;2022-07-29T01:17:01;21.69;74.91
45463;SHT31;31209;49.456;11.134;2022-07-29T01:18:08;21.66;75.39
45463;SHT31;31209;49.456;11.134;2022-07-29T01:20:54;21.7;75.41
45463;SHT31;31209;49.456;11.134;2022-07-29T01:22:12;21.73;75.4
45463;SHT31;31209;49.456;11.134;2022-07-29T01:23:47;21.72;75.42
45463;SHT31;31209;49.456;11.134;2022-07-29T01:25:05;21.75;75.22
45463;SHT31;31209;49.456;11.134;2022-07-29T01:26:26;21.8;75.04
45463;SHT31;31209;49.456;11.134;2022-07-29T01:27:41;21.84;74.97
45463;SHT31;31209;49.456;11.134;2022-07-29T01:28:49;21.89;74.97
45463;SHT31;31209;49.456;11.134;2022-07-29T01:29:54;21.9;75.05
45463;SHT31;31209;49.456;11.134;2022-07-29T01:30:56;21.92;75.02
45463;SHT31;31209;49.456;11.134;2022-07-29T01:32:00;21.93;75.01
45463;SHT31;31209;49.456;11.134;2022-07-29T01:33:07;21.93;74.9
45463;SHT31;31209;49.456;11.134;2022-07-29T01:34:15;21.97;74.83
45463;SHT31;31209;49.456;11.134;2022-07-29T01:35:21;21.97;74.84
45463;SHT31;31209;49.456;11.134;2022-07-29T01:37:46;21.89;75.03
45463;SHT31;31209;49.456;11.134;2022-07-29T01:38:54;21.92;75.13
45463;SHT31;31209;49.456;11.134;2022-07-29T01:39:59;21.89;74.99
45463;SHT31;31209;49.456;11.134;2022-07-29T01:41:05;21.93;75.1
45463;SHT31;31209;49.456;11.134;2022-07-29T01:42:14;21.94;75.03
45463;SHT31;31209;49.456;11.134;2022-07-29T01:43:18;21.92;74.91
45463;SHT31;31209;49.456;11.134;2022-07-29T01:44:27;21.92;74.95
45463;SHT31;31209;49.456;11.134;2022-07-29T01:45:37;21.93;75.08
45463;SHT31;31209;49.456;11.134;2022-07-29T01:46:51;21.89;75.28
45463;SHT31;31209;49.456;11.134;2022-07-29T01:47:57;21.82;75.36
45463;SHT31;31209;49.456;11.134;2022-07-29T01:49:05;21.83;75.43
45463;SHT31;31209;49.456;11.134;2022-07-29T01:50:10;21.84;75.42
45463;SHT31;31209;49.456;11.134;2022-07-29T01:51:16;21.86;75.39
45463;SHT31;31209;49.456;11.134;2022-07-29T01:52:21;21.87;75.4
45463;SHT31;31209;49.456;11.134;2022-07-29T01:53:28;21.86;75.49
45463;SHT31;31209;49.456;11.134;2022-07-29T01:54:34;21.87;75.55
45463;SHT31;31209;49.456;11.134;2022-07-29T01:55:40;21.89;75.51
45463;SHT31;31209;49.456;11.134;2022-07-29T01:56:43;21.82;75.54
45463;SHT31;31209;49.456;11.134;2022-07-29T01:57:49;21.79;75.76
45463;SHT31;31209;49.456;11.134;2022-07-29T01:58:52;21.79;75.76
45463;SHT31;31209;49.456;11.134;2022-07-29T01:59:56;21.73;75.78
45463;SHT31;31209;49.456;11.134;2022-07-29T02:00:58;21.72;76.04
45463;SHT31;31209;49.456;11.134;2022-07-29T02:02:00;21.72;76.07
45463;SHT31;31209;49.456;11.134;2022-07-29T02:03:05;21.69;76.07
45463;SHT31;31209;49.456;11.134;2022-07-29T02:04:09;21.69;76.14
45463;SHT31;31209;49.456;11.134;2022-07-29T02:05:14;21.67;76.23
45463;SHT31;31209;49.456;11.134;2022-07-29T02:06:19;21.64;76.3
45463;SHT31;31209;49.456;11.134;2022-07-29T02:07:23;21.64;76.25
45463;SHT31;31209;49.456;11.134;2022-07-29T02:08:26;21.64;76.37
45463;SHT31;31209;49.456;11.134;2022-07-29T02:09:30;21.64;76.45
45463;SHT31;31209;49.456;11.134;2022-07-29T02:10:33;21.66;76.5
45463;SHT31;31209;49.456;11.134;2022-07-29T02:11:35;21.69;76.53
45463;SHT31;31209;49.456;11.134;2022-07-29T02:12:38;21.66;76.57
45463;SHT31;31209;49.456;11.134;2022-07-29T02:13:40;21.67;76.53
45463;SHT31;31209;49.456;11.134;2022-07-29T02:14:44;21.69;76.42
45463;SHT31;31209;49.456;11.134;2022-07-29T02:15:46;21.67;76.38
45463;SHT31;31209;49.456;11.134;2022-07-29T02:16:53;21.67;76.43
45463;SHT31;31209;49.456;11.134;2022-07-29T02:17:58;21.6;76.48
45463;SHT31;31209;49.456;11.134;2022-07-29T02:19:01;21.56;76.52
45463;SHT31;31209;49.456;11.134;2022-07-29T02:20:05;21.52;76.77
45463;SHT31;31209;49.456;11.134;2022-07-29T02:21:07;21.42;76.96
45463;SHT31;31209;49.456;11.134;2022-07-29T02:22:08;21.39;77.11
45463;SHT31;31209;49.456;11.134;2022-07-29T02:23:11;21.32;77.27
45463;SHT31;31209;49.456;11.134;2022-07-29T02:24:14;21.31;77.35
45463;SHT31;31209;49.456;11.134;2022-07-29T02:25:17;21.24;77.53
45463;SHT31;31209;49.456;11.134;2022-07-29T02:26:20;21.21;77.77
45463;SHT31;31209;49.456;11.134;2022-07-29T02:27:23;21.17;77.73
45463;SHT31;31209;49.456;11.134;2022-07-29T02:28:27;21.11;77.74
45463;SHT31;31209;49.456;11.134;2022-07-29T02:29:30;21.05;77.84
45463;SHT31;31209;49.456;11.134;2022-07-29T02:30:33;21.06;77.85
45463;SHT31;31209;49.456;11.134;2022-07-29T02:31:36;20.99;77.91
45463;SHT31;31209;49.456;11.134;2022-07-29T02:32:40;20.98;77.87
45463;SHT31;31209;49.456;11.134;2022-07-29T02:33:43;20.92;77.82
45463;SHT31;31209;49.456;11.134;2022-07-29T02:34:46;20.91;77.78
45463;SHT31;31209;49.456;11.134;2022-07-29T02:35:48;20.94;77.72
45463;SHT31;31209;49.456;11.134;2022-07-29T02:36:50;20.91;77.72
45463;SHT31;31209;49.456;11.134;2022-07-29T02:37:53;20.92;77.68
45463;SHT31;31209;49.456;11.134;2022-07-29T02:38:55;20.89;77.73
45463;SHT31;31209;49.456;11.134;2022-07-29T02:39:58;20.85;77.8
45463;SHT31;31209;49.456;11.134;2022-07-29T02:41:01;20.88;77.72
45463;SHT31;31209;49.456;11.134;2022-07-29T02:42:06;20.89;77.71
45463;SHT31;31209;49.456;11.134;2022-07-29T02:43:09;20.92;77.71
45463;SHT31;31209;49.456;11.134;2022-07-29T02:44:12;20.87;77.66
45463;SHT31;31209;49.456;11.134;2022-07-29T02:45:13;20.87;77.63
45463;SHT31;31209;49.456;11.134;2022-07-29T02:46:27;20.87;77.54
45463;SHT31;31209;49.456;11.134;2022-07-29T02:47:34;20.82;77.52
45463;SHT31;31209;49.456;11.134;2022-07-29T02:48:38;20.85;77.49
45463;SHT31;31209;49.456;11.134;2022-07-29T02:49:48;20.84;77.47
45463;SHT31;31209;49.456;11.134;2022-07-29T02:50:55;20.81;77.34
45463;SHT31;31209;49.456;11.134;2022-07-29T02:52:02;20.8;77.27
45463;SHT31;31209;49.456;11.134;2022-07-29T02:53:07;20.78;77.14
45463;SHT31;31209;49.456;11.134;2022-07-29T02:54:11;20.8;77.16
45463;SHT31;31209;49.456;11.134;2022-07-29T02:55:18;20.84;77.08
45463;SHT31;31209;49.456;11.134;2022-07-29T02:56:25;20.85;77.01
45463;SHT31;31209;49.456;11.134;2022-07-29T02:57:32;20.8;77.09
45463;SHT31;31209;49.456;11.134;2022-07-29T02:58:38;20.75;77.13
45463;SHT31;31209;49.456;11.134;2022-07-29T02:59:42;20.73;77.26
45463;SHT31;31209;49.456;11.134;2022-07-29T03:00:47;20.71;77.46
45463;SHT31;31209;49.456;11.134;2022-07-29T03:01:49;20.74;77.44
45463;SHT31;31209;49.456;11.134;2022-07-29T03:02:53;20.75;77.44
45463;SHT31;31209;49.456;11.134;2022-07-29T03:03:55;20.75;77.44
45463;SHT31;31209;49.456;11.134;2022-07-29T03:04:57;20.78;77.42
45463;SHT31;31209;49.456;11.134;2022-07-29T03:06:00;20.8;77.41
45463;SHT31;31209;49.456;11.134;2022-07-29T03:07:02;20.77;77.43
45463;SHT31;31209;49.456;11.134;2022-07-29T03:08:05;20.78;77.54
45463;SHT31;31209;49.456;11.134;2022-07-29T03:09:07;20.78;77.6
45463;SHT31;31209;49.456;11.134;2022-07-29T03:10:10;20.8;77.63
45463;SHT31;31209;49.456;11.134;2022-07-29T03:11:16;20.77;77.72
45463;SHT31;31209;49.456;11.134;2022-07-29T03:12:18;20.81;77.78
45463;SHT31;31209;49.456;11.134;2022-07-29T03:13:19;20.81;77.66
45463;SHT31;31209;49.456;11.134;2022-07-29T03:14:20;20.85;77.64
45463;SHT31;31209;49.456;11.134;2022-07-29T03:15:22;20.88;77.62
45463;SHT31;31209;49.456;11.134;2022-07-29T03:16:24;20.91;77.52
45463;SHT31;31209;49.456;11.134;2022-07-29T03:17:25;20.87;77.56
45463;SHT31;31209;49.456;11.134;2022-07-29T03:18:27;20.88;77.55
45463;SHT31;31209;49.456;11.134;2022-07-29T03:19:28;20.87;77.5
45463;SHT31;31209;49.456;11.134;2022-07-29T03:20:29;20.88;77.41
45463;SHT31;31209;49.456;11.134;2022-07-29T03:21:30;20.89;77.37
45463;SHT31;31209;49.456;11.134;2022-07-29T03:22:31;20.88;77.55
45463;SHT31;31209;49.456;11.134;2022-07-29T03:23:32;20.89;77.61
45463;SHT31;31209;49.456;11.134;2022-07-29T03:24:34;20.84;77.62
45463;SHT31;31209;49.456;11.134;2022-07-29T03:25:35;20.84;77.64
45463;SHT31;31209;49.456;11.134;2022-07-29T03:26:36;20.82;77.75
45463;SHT31;31209;49.456;11.134;2022-07-29T03:27:38;20.88;77.82
45463;SHT31;31209;49.456;11.134;2022-07-29T03:28:39;20.89;77.71
45463;SHT31;31209;49.456;11.134;2022-07-29T03:29:40;20.88;77.61
45463;SHT31;31209;49.456;11.134;2022-07-29T03:30:41;20.88;77.56
45463;SHT31;31209;49.456;11.134;2022-07-29T03:31:41;20.92;77.52
45463;SHT31;31209;49.456;11.134;2022-07-29T03:32:42;20.92;77.59
45463;SHT31;31209;49.456;11.134;2022-07-29T03:33:43;20.91;77.76
45463;SHT31;31209;49.456;11.134;2022-07-29T03:34:44;20.87;77.77
45463;SHT31;31209;49.456;11.134;2022-07-29T03:35:44;20.81;77.81
45463;SHT31;31209;49.456;11.134;2022-07-29T03:36:47;20.81;77.76
45463;SHT31;31209;49.456;11.134;2022-07-29T03:37:48;20.77;77.68
45463;SHT31;31209;49.456;11.134;2022-07-29T03:38:49;20.75;77.57
45463;SHT31;31209;49.456;11.134;2022-07-29T03:39:51;20.71;77.57
45463;SHT31;31209;49.456;11.134;2022-07-29T03:40:55;20.65;77.51
45463;SHT31;31209;49.456;11.134;2022-07-29T03:41:58;20.61;77.5
45463;SHT31;31209;49.456;11.134;2022-07-29T03:43:00;20.6;77.49
45463;SHT31;31209;49.456;11.134;2022-07-29T03:44:04;20.64;77.49
45463;SHT31;31209;49.456;11.134;2022-07-29T03:45:09;20.64;77.44
45463;SHT31;31209;49.456;11.134;2022-07-29T03:46:11;20.64;77.41
45463;SHT31;31209;49.456;11.134;2022-07-29T03:47:15;20.68;77.39
45463;SHT31;31209;49.456;11.134;2022-07-29T03:48:22;20.65;77.39
45463;SHT31;31209;49.456;11.134;2022-07-29T03:49:25;20.7;77.41
45463;SHT31;31209;49.456;11.134;2022-07-29T03:50:27;20.7;77.38
45463;SHT31;31209;49.456;11.134;2022-07-29T03:51:30;20.71;77.36
45463;SHT31;31209;49.456;11.134;2022-07-29T03:52:31;20.7;77.31
45463;SHT31;31209;49.456;11.134;2022-07-29T03:53:32;20.68;77.52
45463;SHT31;31209;49.456;11.134;2022-07-29T03:54:33;20.67;77.58
45463;SHT31;31209;49.456;11.134;2022-07-29T03:55:40;20.67;77.58
45463;SHT31;31209;49.456;11.134;2022-07-29T03:56:43;20.68;77.66
45463;SHT31;31209;49.456;11.134;2022-07-29T03:57:46;20.63;77.59
45463;SHT31;31209;49.456;11.134;2022-07-29T03:58:48;20.6;77.57
45463;SHT31;31209;49.456;11.134;2022-07-29T03:59:51;20.6;77.55
45463;SHT31;31209;49.456;11.134;2022-07-29T04:00:54;20.58;77.6
45463;SHT31;31209;49.456;11.134;2022-07-29T04:01:55;20.53;77.62
45463;SHT31;31209;49.456;11.134;2022-07-29T04:02:57;20.54;77.51
45463;SHT31;31209;49.456;11.134;2022-07-29T04:03:59;20.51;77.47
45463;SHT31;31209;49.456;11.134;2022-07-29T04:05:00;20.54;77.46
45463;SHT31;31209;49.456;11.134;2022-07-29T04:06:03;20.5;77.39
45463;SHT31;31209;49.456;11.134;2022-07-29T04:07:04;20.45;77.47
45463;SHT31;31209;49.456;11.134;2022-07-29T04:08:05;20.47;77.46
45463;SHT31;31209;49.456;11.134;2022-07-29T04:09:08;20.43;77.49
45463;SHT31;31209;49.456;11.134;2022-07-29T04:10:10;20.43;77.46
45463;SHT31;31209;49.456;11.134;2022-07-29T04:11:16;20.4;77.4
45463;SHT31;31209;49.456;11.134;2022-07-29T04:12:21;20.44;77.49
45463;SHT31;31209;49.456;11.134;2022-07-29T04:13:21;20.44;77.25
45463;SHT31;31209;49.456;11.134;2022-07-29T04:14:22;20.47;77.21
45463;SHT31;31209;49.456;11.134;2022-07-29T04:15:23;20.45;77.12
45463;SHT31;31209;49.456;11.134;2022-07-29T04:16:24;20.45;77.14
45463;SHT31;31209;49.456;11.134;2022-07-29T04:17:25;20.47;77.13
45463;SHT31;31209;49.456;11.134;2022-07-29T04:18:25;20.5;77.07
45463;SHT31;31209;49.456;11.134;2022-07-29T04:19:26;20.51;77.08
45463;SHT31;31209;49.456;11.134;2022-07-29T04:20:27;20.5;77.13
45463;SHT31;31209;49.456;11.134;2022-07-29T04:21:28;20.51;77.11
45463;SHT31;31209;49.456;11.134;2022-07-29T04:22:29;20.55;76.99
45463;SHT31;31209;49.456;11.134;2022-07-29T04:23:30;20.58;77.03
45463;SHT31;31209;49.456;11.134;2022-07-29T04:24:30;20.54;76.98
45463;SHT31;31209;49.456;11.134;2022-07-29T04:25:31;20.55;76.96
45463;SHT31;31209;49.456;11.134;2022-07-29T04:26:32;20.55;76.93
45463;SHT31;31209;49.456;11.134;2022-07-29T04:27:33;20.54;76.9
45463;SHT31;31209;49.456;11.134;2022-07-29T04:28:34;20.51;77.0
45463;SHT31;31209;49.456;11.134;2022-07-29T04:29:35;20.5;77.01
45463;SHT31;31209;49.456;11.134;2022-07-29T04:30:37;20.54;77.1
45463;SHT31;31209;49.456;11.134;2022-07-29T04:31:38;20.55;77.12
45463;SHT31;31209;49.456;11.134;2022-07-29T04:32:38;20.57;77.15
45463;SHT31;31209;49.456;11.134;2022-07-29T04:33:39;20.57;77.18
45463;SHT31;31209;49.456;11.134;2022-07-29T04:34:40;20.57;77.14
45463;SHT31;31209;49.456;11.134;2022-07-29T04:35:41;20.61;77.17
45463;SHT31;31209;49.456;11.134;2022-07-29T04:36:42;20.6;77.27
45463;SHT31;31209;49.456;11.134;2022-07-29T04:37:43;20.61;77.37
45463;SHT31;31209;49.456;11.134;2022-07-29T04:38:43;20.63;77.32
45463;SHT31;31209;49.456;11.134;2022-07-29T04:39:44;20.63;77.34
45463;SHT31;31209;49.456;11.134;2022-07-29T04:40:45;20.61;77.31
45463;SHT31;31209;49.456;11.134;2022-07-29T04:41:47;20.6;77.3
45463;SHT31;31209;49.456;11.134;2022-07-29T04:42:48;20.64;77.29
45463;SHT31;31209;49.456;11.134;2022-07-29T04:43:49;20.61;77.24
45463;SHT31;31209;49.456;11.134;2022-07-29T04:44:50;20.61;77.3
45463;SHT31;31209;49.456;11.134;2022-07-29T04:45:50;20.6;77.32
45463;SHT31;31209;49.456;11.134;2022-07-29T04:46:51;20.58;77.38
45463;SHT31;31209;49.456;11.134;2022-07-29T04:47:52;20.61;77.34
45463;SHT31;31209;49.456;11.134;2022-07-29T04:48:53;20.61;77.31
45463;SHT31;31209;49.456;11.134;2022-07-29T04:49:53;20.6;77.38
45463;SHT31;31209;49.456;11.134;2022-07-29T04:50:54;20.57;77.41
45463;SHT31;31209;49.456;11.134;2022-07-29T04:51:55;20.54;77.43
45463;SHT31;31209;49.456;11.134;2022-07-29T04:52:56;20.57;77.42
45463;SHT31;31209;49.456;11.134;2022-07-29T04:53:57;20.54;77.61
45463;SHT31;31209;49.456;11.134;2022-07-29T04:54:58;20.51;77.73
45463;SHT31;31209;49.456;11.134;2022-07-29T04:55:58;20.51;77.76
45463;SHT31;31209;49.456;11.134;2022-07-29T04:56:59;20.51;77.82
45463;SHT31;31209;49.456;11.134;2022-07-29T04:58:00;20.53;77.77
45463;SHT31;31209;49.456;11.134;2022-07-29T04:59:01;20.51;77.85
45463;SHT31;31209;49.456;11.134;2022-07-29T05:00:03;20.45;77.94
45463;SHT31;31209;49.456;11.134;2022-07-29T05:01:04;20.45;78.12
45463;SHT31;31209;49.456;11.134;2022-07-29T05:02:05;20.43;78.24
45463;SHT31;31209;49.456;11.134;2022-07-29T05:03:05;20.37;78.47
45463;SHT31;31209;49.456;11.134;2022-07-29T05:04:06;20.37;78.34
45463;SHT31;31209;49.456;11.134;2022-07-29T05:05:07;20.33;78.29
45463;SHT31;31209;49.456;11.134;2022-07-29T05:06:08;20.31;78.45
45463;SHT31;31209;49.456;11.134;2022-07-29T05:07:09;20.34;78.49
45463;SHT31;31209;49.456;11.134;2022-07-29T05:08:10;20.35;78.56
45463;SHT31;31209;49.456;11.134;2022-07-29T05:09:10;20.4;78.68
45463;SHT31;31209;49.456;11.134;2022-07-29T05:10:11;20.43;78.52
45463;SHT31;31209;49.456;11.134;2022-07-29T05:11:17;20.44;78.46
45463;SHT31;31209;49.456;11.134;2022-07-29T05:12:18;20.44;78.27
45463;SHT31;31209;49.456;11.134;2022-07-29T05:13:19;20.41;78.26
45463;SHT31;31209;49.456;11.134;2022-07-29T05:14:20;20.44;78.38
45463;SHT31;31209;49.456;11.134;2022-07-29T05:15:20;20.47;78.5
45463;SHT31;31209;49.456;11.134;2022-07-29T05:16:21;20.5;78.63
45463;SHT31;31209;49.456;11.134;2022-07-29T05:17:23;20.51;78.76
45463;SHT31;31209;49.456;11.134;2022-07-29T05:18:24;20.5;78.94
45463;SHT31;31209;49.456;11.134;2022-07-29T05:19:24;20.47;78.89
45463;SHT31;31209;49.456;11.134;2022-07-29T05:20:25;20.45;79.03
45463;SHT31;31209;49.456;11.134;2022-07-29T05:21:26;20.44;79.38
45463;SHT31;31209;49.456;11.134;2022-07-29T05:22:27;20.44;79.61
45463;SHT31;31209;49.456;11.134;2022-07-29T05:23:28;20.45;79.63
45463;SHT31;31209;49.456;11.134;2022-07-29T05:24:28;20.51;79.79
45463;SHT31;31209;49.456;11.134;2022-07-29T05:25:29;20.51;79.9
45463;SHT31;31209;49.456;11.134;2022-07-29T05:26:30;20.51;80.08
45463;SHT31;31209;49.456;11.134;2022-07-29T05:27:31;20.54;80.03
45463;SHT31;31209;49.456;11.134;2022-07-29T05:28:33;20.61;79.9
45463;SHT31;31209;49.456;11.134;2022-07-29T05:29:33;20.61;79.91
45463;SHT31;31209;49.456;11.134;2022-07-29T05:30:34;20.57;79.75
45463;SHT31;31209;49.456;11.134;2022-07-29T05:31:35;20.61;79.29
45463;SHT31;31209;49.456;11.134;2022-07-29T05:32:36;20.63;79.86
45463;SHT31;31209;49.456;11.134;2022-07-29T05:33:36;20.65;79.91
45463;SHT31;31209;49.456;11.134;2022-07-29T05:34:37;20.68;79.62
45463;SHT31;31209;49.456;11.134;2022-07-29T05:35:38;20.77;79.71
45463;SHT31;31209;49.456;11.134;2022-07-29T05:36:39;20.75;79.51
45463;SHT31;31209;49.456;11.134;2022-07-29T05:37:40;20.77;79.47
45463;SHT31;31209;49.456;11.134;2022-07-29T05:38:40;20.77;79.62
45463;SHT31;31209;49.456;11.134;2022-07-29T05:39:41;20.82;79.7
45463;SHT31;31209;49.456;11.134;2022-07-29T05:40:42;20.89;79.48
45463;SHT31;31209;49.456;11.134;2022-07-29T05:41:43;20.94;78.82
45463;SHT31;31209;49.456;11.134;2022-07-29T05:42:43;20.97;78.72
45463;SHT31;31209;49.456;11.134;2022-07-29T05:43:44;20.98;79.26
45463;SHT31;31209;49.456;11.134;2022-07-29T05:44:45;21.01;79.32
45463;SHT31;31209;49.456;11.134;2022-07-29T05:45:46;21.08;79.37
45463;SHT31;31209;49.456;11.134;2022-07-29T05:46:47;21.08;79.08
45463;SHT31;31209;49.456;11.134;2022-07-29T05:47:49;21.14;78.77
45463;SHT31;31209;49.456;11.134;2022-07-29T05:48:50;21.17;79.14
45463;SHT31;31209;49.456;11.134;2022-07-29T05:49:51;21.14;79.78
45463;SHT31;31209;49.456;11.134;2022-07-29T05:50:52;21.21;79.57
45463;SHT31;31209;49.456;11.134;2022-07-29T05:51:53;21.21;79.65
45463;SHT31;31209;49.456;11.134;2022-07-29T05:52:53;21.19;78.37
45463;SHT31;31209;49.456;11.134;2022-07-29T05:53:54;21.24;78.16
45463;SHT31;31209;49.456;11.134;2022-07-29T05:54:55;21.31;78.06
45463;SHT31;31209;49.456;11.134;2022-07-29T05:55:56;21.33;77.78
45463;SHT31;31209;49.456;11.134;2022-07-29T05:56:56;21.38;77.74
45463;SHT31;31209;49.456;11.134;2022-07-29T05:57:57;21.46;77.57
45463;SHT31;31209;49.456;11.134;2022-07-29T05:58:58;21.45;77.86
45463;SHT31;31209;49.456;11.134;2022-07-29T05:59:59;21.53;77.79
45463;SHT31;31209;49.456;11.134;2022-07-29T06:00:59;21.57;77.91
45463;SHT31;31209;49.456;11.134;2022-07-29T06:02:00;21.52;77.96
45463;SHT31;31209;49.456;11.134;2022-07-29T06:03:01;21.49;77.89
45463;SHT31;31209;49.456;11.134;2022-07-29T06:04:02;21.53;77.83
45463;SHT31;31209;49.456;11.134;2022-07-29T06:05:03;21.64;77.91
45463;SHT31;31209;49.456;11.134;2022-07-29T06:06:04;21.62;77.68
45463;SHT31;31209;49.456;11.134;2022-07-29T06:07:05;21.63;77.62
45463;SHT31;31209;49.456;11.134;2022-07-29T06:08:06;21.67;77.64
45463;SHT31;31209;49.456;11.134;2022-07-29T06:09:07;21.73;77.75
45463;SHT31;31209;49.456;11.134;2022-07-29T06:10:08;21.73;77.89
45463;SHT31;31209;49.456;11.134;2022-07-29T06:11:09;21.82;78.0
45463;SHT31;31209;49.456;11.134;2022-07-29T06:12:13;21.82;77.78
45463;SHT31;31209;49.456;11.134;2022-07-29T06:13:14;21.89;77.57
45463;SHT31;31209;49.456;11.134;2022-07-29T06:14:15;21.92;77.63
45463;SHT31;31209;49.456;11.134;2022-07-29T06:15:16;21.92;77.59
45463;SHT31;31209;49.456;11.134;2022-07-29T06:16:17;21.96;77.65
45463;SHT31;31209;49.456;11.134;2022-07-29T06:17:17;22.02;77.71
45463;SHT31;31209;49.456;11.134;2022-07-29T06:18:18;22.08;77.57
45463;SHT31;31209;49.456;11.134;2022-07-29T06:19:19;22.11;77.43
45463;SHT31;31209;49.456;11.134;2022-07-29T06:20:20;22.17;77.53
45463;SHT31;31209;49.456;11.134;2022-07-29T06:21:21;22.17;77.41
45463;SHT31;31209;49.456;11.134;2022-07-29T06:22:23;22.11;77.12
45463;SHT31;31209;49.456;11.134;2022-07-29T06:23:24;22.11;77.08
45463;SHT31;31209;49.456;11.134;2022-07-29T06:24:24;22.21;77.12
45463;SHT31;31209;49.456;11.134;2022-07-29T06:25:26;22.27;77.24
45463;SHT31;31209;49.456;11.134;2022-07-29T06:26:26;22.28;77.39
45463;SHT31;31209;49.456;11.134;2022-07-29T06:27:27;22.3;77.0
45463;SHT31;31209;49.456;11.134;2022-07-29T06:28:28;22.38;76.97
45463;SHT31;31209;49.456;11.134;2022-07-29T06:29:29;22.41;76.89
45463;SHT31;31209;49.456;11.134;2022-07-29T06:30:30;22.41;76.86
45463;SHT31;31209;49.456;11.134;2022-07-29T06:31:30;22.34;76.77
45463;SHT31;31209;49.456;11.134;2022-07-29T06:32:31;22.43;77.19